Time;durP1;ratioP1;P1;durP2;ratioP2;P2;SDS_P1;SDS_P2;PMS_P1;PMS_P2;Temp;Humidity;BMP_temperature;BMP_pressure;BME280_temperature;BME280_humidity;BME280_pressure;Samples;Min_cycle;Max_cycle;Signal;HPM_P1;HPM_P2
2023/02/11 00:00:30;;;;;;;2.63;1.85;;;;;;;;;;5097083;28;20343;-76
2023/02/11 00:03:00;;;;;;;2.72;1.40;;;;;;;;;;5096941;28;20051;-77
2023/02/11 00:05:40;;;;;;;6.13;2.17;;;;;;;;;;5106571;28;20394;-81
2023/02/11 00:08:15;;;;;;;4.10;2.00;;;;;;;;;;5104901;28;20513;-77
2023/02/11 00:10:52;;;;;;;5.63;1.42;;;;;;;;;;5097412;28;20040;-77
2023/02/11 00:13:24;;;;;;;5.85;1.80;;;;;;;;;;5098488;28;20536;-76
2023/02/11 00:15:55;;;;;;;9.95;1.58;;;;;;;;;;5098474;28;20040;-74
2023/02/11 00:18:25;;;;;;;6.20;1.77;;;;;;;;;;5089981;28;20094;-76
2023/02/11 00:20:55;;;;;;;5.55;1.38;;;;;;;;;;5080818;28;20043;-74
2023/02/11 00:23:26;;;;;;;2.72;1.30;;;;;;;;;;5094910;28;20047;-75
2023/02/11 00:25:55;;;;;;;7.47;2.13;;;;;;;;;;5077557;28;20056;-74
2023/02/11 00:28:28;;;;;;;4.95;2.25;;;;;;;;;;5080888;28;20043;-74
2023/02/11 00:31:01;;;;;;;7.22;1.50;;;;;;;;;;5106878;28;20043;-75
2023/02/11 00:33:33;;;;;;;3.58;1.70;;;;;;;;;;5104938;28;20044;-78
2023/02/11 00:36:21;;;;;;;4.97;1.55;;;;;;;;;;5098099;28;20063;-74
2023/02/11 00:38:53;;;;;;;3.97;1.55;;;;;;;;;;5095838;28;20048;-76
2023/02/11 00:41:25;;;;;;;3.22;1.60;;;;;;;;;;5088083;28;20482;-74
2023/02/11 00:43:56;;;;;;;6.28;2.13;;;;;;;;;;5072824;28;20065;-77
2023/02/11 00:46:28;;;;;;;6.20;1.60;;;;;;;;;;5098017;28;20051;-74
2023/02/11 00:48:59;;;;;;;7.15;1.88;;;;;;;;;;5078900;28;20047;-76
2023/02/11 00:51:29;;;;;;;3.67;1.30;;;;;;;;;;5079490;28;20043;-76
2023/02/11 00:54:07;;;;;;;6.32;1.50;;;;;;;;;;5096936;28;20055;-75
2023/02/11 00:56:50;;;;;;;3.75;1.60;;;;;;;;;;5043207;28;20066;-77
2023/02/11 00:59:20;;;;;;;7.25;1.85;;;;;;;;;;5096944;28;20612;-75
2023/02/11 01:01:52;;;;;;;4.07;1.73;;;;;;;;;;5085486;28;20059;-76
2023/02/11 01:04:28;;;;;;;4.95;1.52;;;;;;;;;;5088596;28;20048;-75
2023/02/11 01:06:58;;;;;;;8.77;2.17;;;;;;;;;;5087625;28;20058;-76
2023/02/11 01:09:32;;;;;;;5.53;2.17;;;;;;;;;;5106169;28;20035;-76
2023/02/11 01:12:05;;;;;;;6.05;1.92;;;;;;;;;;5097050;28;20059;-76
2023/02/11 01:14:36;;;;;;;5.47;2.00;;;;;;;;;;5095855;28;20043;-76
2023/02/11 01:17:08;;;;;;;3.08;1.50;;;;;;;;;;5095154;28;20529;-76
2023/02/11 01:19:38;;;;;;;9.73;2.15;;;;;;;;;;5096518;28;20052;-75
2023/02/11 01:22:10;;;;;;;6.40;1.88;;;;;;;;;;5097023;28;20039;-75
2023/02/11 01:24:40;;;;;;;3.70;1.50;;;;;;;;;;5102142;28;20052;-75
2023/02/11 01:27:10;;;;;;;8.48;1.80;;;;;;;;;;5105753;28;20043;-75
2023/02/11 01:29:40;;;;;;;14.02;1.95;;;;;;;;;;5106990;28;20422;-76
2023/02/11 01:32:31;;;;;;;6.35;1.88;;;;;;;;;;5107551;28;20502;-75
2023/02/11 01:35:03;;;;;;;6.88;1.88;;;;;;;;;;5106664;28;20055;-76
2023/02/11 01:37:36;;;;;;;8.77;1.92;;;;;;;;;;5087955;28;20054;-75
2023/02/11 01:40:12;;;;;;;4.53;1.80;;;;;;;;;;5107414;28;19927;-75
2023/02/11 01:42:52;;;;;;;5.82;1.88;;;;;;;;;;5107324;28;20044;-77
2023/02/11 01:45:42;;;;;;;9.57;2.20;;;;;;;;;;5088159;28;20051;-75
2023/02/11 01:48:42;;;;;;;5.30;1.65;;;;;;;;;;5087891;28;20054;-75
2023/02/11 01:51:24;;;;;;;3.30;1.50;;;;;;;;;;5104168;28;20071;-75
2023/02/11 01:59:47;;;;;;;6.45;1.85;;;;;;;;;;5111225;28;20513;-76
2023/02/11 02:02:26;;;;;;;10.40;1.98;;;;;;;;;;5092096;28;20047;-75
2023/02/11 02:05:13;;;;;;;5.53;2.10;;;;;;;;;;5075528;28;20507;-75
2023/02/11 02:08:12;;;;;;;2.53;1.67;;;;;;;;;;5111191;28;20394;-75
2023/02/11 02:10:46;;;;;;;3.47;2.00;;;;;;;;;;5101505;28;20062;-75
2023/02/11 02:13:26;;;;;;;2.30;1.85;;;;;;;;;;5109151;28;20383;-75
2023/02/11 02:16:01;;;;;;;3.22;1.85;;;;;;;;;;5074939;28;20406;-75
2023/02/11 02:19:03;;;;;;;3.97;2.08;;;;;;;;;;5091173;28;20063;-75
2023/02/11 02:22:17;;;;;;;8.73;2.22;;;;;;;;;;5092571;28;20619;-75
2023/02/11 02:25:12;;;;;;;4.78;1.80;;;;;;;;;;5094820;28;20082;-78
2023/02/11 02:28:29;;;;;;;3.42;1.83;;;;;;;;;;5109552;28;20078;-76
2023/02/11 02:31:07;;;;;;;6.15;2.13;;;;;;;;;;5109359;28;20565;-76
2023/02/11 02:34:05;;;;;;;3.17;1.67;;;;;;;;;;5110168;28;20055;-75
2023/02/11 02:37:07;;;;;;;3.92;2.22;;;;;;;;;;5110233;28;20044;-76
2023/02/11 02:39:43;;;;;;;3.42;2.03;;;;;;;;;;5109903;28;20502;-75
2023/02/11 02:42:34;;;;;;;8.30;2.22;;;;;;;;;;5109954;28;20048;-75
2023/02/11 02:45:07;;;;;;;5.88;2.25;;;;;;;;;;5092253;28;20039;-75
2023/02/11 02:47:37;;;;;;;7.15;2.17;;;;;;;;;;5109977;28;20047;-75
2023/02/11 02:50:08;;;;;;;3.08;2.08;;;;;;;;;;5110604;28;20498;-75
2023/02/11 02:52:58;;;;;;;3.15;2.05;;;;;;;;;;5110060;28;20391;-75
2023/02/11 02:56:08;;;;;;;6.85;2.40;;;;;;;;;;5109927;28;20063;-76
2023/02/11 02:58:47;;;;;;;3.20;1.90;;;;;;;;;;5109797;28;20498;-75
2023/02/11 03:01:33;;;;;;;6.25;2.25;;;;;;;;;;5091243;28;20055;-76
2023/02/11 03:04:19;;;;;;;4.70;2.08;;;;;;;;;;5109667;28;20047;-76
2023/02/11 03:07:05;;;;;;;4.35;2.15;;;;;;;;;;5108808;28;20043;-75
2023/02/11 03:09:44;;;;;;;3.60;2.13;;;;;;;;;;5090920;28;20056;-75
2023/02/11 03:12:16;;;;;;;5.50;2.30;;;;;;;;;;5109463;28;20043;-76
2023/02/11 03:14:50;;;;;;;8.48;2.40;;;;;;;;;;5109911;28;20043;-77
2023/02/11 03:17:22;;;;;;;4.40;2.40;;;;;;;;;;5109521;28;20043;-75
2023/02/11 03:19:54;;;;;;;3.92;2.42;;;;;;;;;;5109160;28;20047;-75
2023/02/11 03:22:31;;;;;;;6.53;2.63;;;;;;;;;;5109320;28;20453;-75
2023/02/11 03:25:04;;;;;;;5.32;2.67;;;;;;;;;;5108951;28;20054;-76
2023/02/11 03:27:53;;;;;;;5.90;2.53;;;;;;;;;;5109361;28;20050;-75
2023/02/11 03:30:34;;;;;;;7.65;2.42;;;;;;;;;;5109046;28;20051;-75
2023/02/11 03:33:31;;;;;;;8.07;2.70;;;;;;;;;;5108308;28;20056;-75
2023/02/11 03:36:16;;;;;;;4.47;2.33;;;;;;;;;;5109323;28;20043;-75
2023/02/11 03:38:54;;;;;;;4.20;2.20;;;;;;;;;;5109353;28;20050;-75
2023/02/11 03:41:25;;;;;;;3.88;2.53;;;;;;;;;;5090437;28;20418;-75
2023/02/11 03:43:57;;;;;;;6.80;2.67;;;;;;;;;;5109089;28;20048;-75
2023/02/11 03:46:33;;;;;;;6.00;2.67;;;;;;;;;;5108763;28;20063;-75
2023/02/11 03:49:17;;;;;;;4.80;2.75;;;;;;;;;;5108175;28;20054;-75
2023/02/11 03:52:06;;;;;;;9.95;3.00;;;;;;;;;;5108959;28;20402;-75
2023/02/11 03:54:44;;;;;;;4.45;2.60;;;;;;;;;;5108482;28;20047;-75
2023/02/11 03:57:15;;;;;;;4.22;2.50;;;;;;;;;;5108391;28;20062;-76
2023/02/11 03:59:58;;;;;;;4.93;2.78;;;;;;;;;;5108434;28;20054;-76
2023/02/11 04:02:39;;;;;;;5.38;2.80;;;;;;;;;;5111936;28;20406;-76
2023/02/11 04:05:18;;;;;;;7.47;3.53;;;;;;;;;;5109194;28;20524;-73
2023/02/11 04:07:50;;;;;;;6.07;3.03;;;;;;;;;;5108325;28;20047;-74
2023/02/11 04:10:21;;;;;;;8.35;3.17;;;;;;;;;;5108117;28;20406;-74
2023/02/11 04:12:51;;;;;;;6.10;3.38;;;;;;;;;;5108221;28;20044;-74
2023/02/11 04:15:24;;;;;;;5.20;3.45;;;;;;;;;;5106794;28;20048;-74
2023/02/11 04:18:02;;;;;;;4.10;3.30;;;;;;;;;;5107956;28;20055;-74
2023/02/11 04:20:32;;;;;;;6.75;2.95;;;;;;;;;;5108224;28;20079;-74
2023/02/11 04:23:02;;;;;;;7.50;3.50;;;;;;;;;;5089173;28;20047;-74
2023/02/11 04:25:33;;;;;;;7.05;3.67;;;;;;;;;;5108169;28;20499;-74
2023/02/11 04:28:04;;;;;;;4.93;3.13;;;;;;;;;;5108291;28;20483;-74
2023/02/11 04:30:36;;;;;;;4.85;3.13;;;;;;;;;;5107686;28;20051;-75
2023/02/11 04:33:14;;;;;;;4.43;3.35;;;;;;;;;;5089862;28;20064;-74
2023/02/11 04:35:45;;;;;;;6.72;3.42;;;;;;;;;;5107605;28;20058;-73
2023/02/11 04:38:15;;;;;;;6.90;3.50;;;;;;;;;;5107809;28;20032;-74
2023/02/11 04:40:46;;;;;;;4.70;3.28;;;;;;;;;;5108044;28;20062;-74
2023/02/11 04:43:17;;;;;;;7.93;3.47;;;;;;;;;;5090036;28;20055;-74
2023/02/11 04:45:46;;;;;;;9.88;4.20;;;;;;;;;;5107120;28;20817;-74
2023/02/11 04:48:19;;;;;;;8.55;4.00;;;;;;;;;;5107732;28;20071;-74
2023/02/11 04:50:50;;;;;;;8.43;3.88;;;;;;;;;;5107929;28;20513;-74
2023/02/11 04:53:20;;;;;;;10.80;3.97;;;;;;;;;;5107993;28;20082;-74
2023/02/11 04:55:51;;;;;;;8.43;4.00;;;;;;;;;;5107690;28;20035;-74
2023/02/11 04:58:23;;;;;;;5.38;3.45;;;;;;;;;;5107760;28;20054;-74
2023/02/11 05:00:53;;;;;;;5.18;4.15;;;;;;;;;;5107438;28;20051;-74
2023/02/11 05:03:23;;;;;;;6.15;3.70;;;;;;;;;;5107474;28;20044;-74
2023/02/11 05:05:55;;;;;;;6.35;4.13;;;;;;;;;;5089671;28;20522;-74
2023/02/11 05:08:45;;;;;;;7.28;4.18;;;;;;;;;;5114227;28;20051;-74
2023/02/11 05:11:22;;;;;;;5.30;4.18;;;;;;;;;;5107521;28;20055;-74
2023/02/11 05:13:53;;;;;;;4.70;3.78;;;;;;;;;;5107609;28;20036;-74
2023/02/11 05:16:22;;;;;;;5.05;4.13;;;;;;;;;;5089055;28;20039;-74
2023/02/11 05:18:54;;;;;;;5.40;4.43;;;;;;;;;;5107446;28;20051;-74
2023/02/11 05:21:25;;;;;;;5.93;4.25;;;;;;;;;;5107270;28;20055;-74
2023/02/11 05:23:57;;;;;;;5.65;4.32;;;;;;;;;;5107171;28;20051;-74
2023/02/11 05:26:26;;;;;;;6.10;4.43;;;;;;;;;;5088409;28;20066;-74
2023/02/11 05:28:57;;;;;;;11.60;4.97;;;;;;;;;;5106714;28;20056;-74
2023/02/11 05:31:29;;;;;;;9.13;4.80;;;;;;;;;;5107026;28;20050;-74
2023/02/11 05:34:02;;;;;;;6.63;4.80;;;;;;;;;;5107249;28;20513;-74
2023/02/11 05:36:32;;;;;;;5.95;4.95;;;;;;;;;;5107035;28;20046;-74
2023/02/11 05:39:03;;;;;;;5.28;4.18;;;;;;;;;;5106877;28;20036;-74
2023/02/11 05:41:33;;;;;;;6.00;4.93;;;;;;;;;;5106907;28;20084;-74
2023/02/11 05:44:04;;;;;;;8.65;4.85;;;;;;;;;;5107115;28;20052;-74
2023/02/11 05:46:37;;;;;;;7.88;4.85;;;;;;;;;;5089074;28;20445;-74
2023/02/11 05:49:07;;;;;;;8.38;4.90;;;;;;;;;;5106217;28;20044;-74
2023/02/11 05:51:39;;;;;;;6.60;4.88;;;;;;;;;;5089541;28;20514;-74
2023/02/11 05:54:09;;;;;;;9.18;5.05;;;;;;;;;;5106580;28;20055;-74
2023/02/11 05:56:40;;;;;;;7.93;4.60;;;;;;;;;;5106610;28;20398;-74
2023/02/11 05:59:14;;;;;;;7.07;4.78;;;;;;;;;;5106798;28;20506;-74
2023/02/11 06:01:44;;;;;;;7.68;4.43;;;;;;;;;;5087764;28;20506;-74
2023/02/11 06:04:14;;;;;;;5.93;5.07;;;;;;;;;;5106828;28;20055;-74
2023/02/11 06:06:45;;;;;;;7.32;5.10;;;;;;;;;;5107148;28;20051;-74
2023/02/11 06:09:16;;;;;;;6.47;5.13;;;;;;;;;;5106805;28;20063;-74
2023/02/11 06:11:47;;;;;;;9.32;4.97;;;;;;;;;;5106300;28;20051;-74
2023/02/11 06:14:18;;;;;;;6.60;4.38;;;;;;;;;;5107097;28;20421;-73
2023/02/11 06:16:48;;;;;;;8.93;4.63;;;;;;;;;;5106695;28;20055;-74
2023/02/11 06:19:19;;;;;;;8.32;5.10;;;;;;;;;;5106424;28;20502;-73
2023/02/11 06:21:48;;;;;;;7.30;4.63;;;;;;;;;;5106389;28;20075;-74
2023/02/11 06:24:18;;;;;;;4.97;4.47;;;;;;;;;;5088454;28;20051;-73
2023/02/11 06:27:10;;;;;;;7.40;5.13;;;;;;;;;;5106477;28;20039;-74
2023/02/11 06:29:45;;;;;;;7.82;5.25;;;;;;;;;;5087999;28;20059;-74
2023/02/11 06:32:16;;;;;;;7.80;4.82;;;;;;;;;;5106881;28;20040;-74
2023/02/11 06:35:13;;;;;;;9.23;4.47;;;;;;;;;;5106168;28;20054;-73
2023/02/11 06:37:56;;;;;;;4.95;4.43;;;;;;;;;;5107717;28;20758;-74
2023/02/11 06:40:26;;;;;;;8.05;5.40;;;;;;;;;;5109908;28;20054;-74
2023/02/11 06:42:58;;;;;;;9.20;4.70;;;;;;;;;;5110501;28;20047;-73
2023/02/11 06:48:19;;;;;;;6.95;5.03;;;;;;;;;;5066465;28;20438;-73
2023/02/11 06:50:50;;;;;;;9.50;5.10;;;;;;;;;;5068844;28;20056;-74
2023/02/11 06:53:21;;;;;;;9.73;5.38;;;;;;;;;;5069604;28;20052;-74
2023/02/11 06:55:51;;;;;;;10.13;5.28;;;;;;;;;;5067770;28;20049;-74
2023/02/11 06:58:24;;;;;;;9.57;5.20;;;;;;;;;;5068829;28;20044;-74
2023/02/11 07:00:55;;;;;;;8.43;4.90;;;;;;;;;;5067941;28;20063;-73
2023/02/11 07:03:45;;;;;;;13.00;5.10;;;;;;;;;;5065328;28;20056;-73
2023/02/11 07:06:19;;;;;;;8.55;4.65;;;;;;;;;;5068929;28;20048;-73
2023/02/11 07:08:50;;;;;;;7.72;4.63;;;;;;;;;;5069177;28;20044;-73
2023/02/11 07:11:25;;;;;;;7.43;4.40;;;;;;;;;;5069358;28;20045;-73
2023/02/11 07:14:01;;;;;;;7.60;4.82;;;;;;;;;;5068702;28;20064;-78
2023/02/11 07:16:32;;;;;;;7.60;5.22;;;;;;;;;;5069008;28;20443;-77
2023/02/11 07:19:02;;;;;;;7.65;5.10;;;;;;;;;;5068868;28;20040;-79
2023/02/11 07:21:32;;;;;;;7.55;5.35;;;;;;;;;;5068815;28;20056;-79
2023/02/11 07:24:07;;;;;;;6.70;5.00;;;;;;;;;;5068555;28;20056;-78
2023/02/11 07:26:48;;;;;;;8.57;4.93;;;;;;;;;;5068277;28;20051;-78
2023/02/11 07:29:18;;;;;;;6.35;4.90;;;;;;;;;;5068554;28;20059;-79
2023/02/11 07:31:50;;;;;;;8.45;5.03;;;;;;;;;;5067185;28;20052;-79
2023/02/11 07:34:20;;;;;;;7.40;4.70;;;;;;;;;;5069241;28;20044;-76
2023/02/11 07:36:51;;;;;;;11.00;5.55;;;;;;;;;;5068478;28;20049;-79
2023/02/11 07:39:21;;;;;;;7.40;5.10;;;;;;;;;;5068024;28;20045;-79
2023/02/11 07:41:51;;;;;;;7.40;5.03;;;;;;;;;;5068297;28;20518;-77
2023/02/11 07:44:22;;;;;;;8.18;5.78;;;;;;;;;;5068312;28;20057;-75
2023/02/11 07:46:53;;;;;;;11.35;5.57;;;;;;;;;;5091694;28;20052;-74
2023/02/11 07:49:24;;;;;;;6.55;5.15;;;;;;;;;;5107503;28;20047;-74
2023/02/11 07:51:54;;;;;;;8.02;5.07;;;;;;;;;;5108216;28;20048;-74
2023/02/11 07:54:27;;;;;;;7.47;5.35;;;;;;;;;;5108705;28;20055;-74
2023/02/11 07:56:57;;;;;;;7.95;5.47;;;;;;;;;;5108634;28;20044;-74
2023/02/11 07:59:27;;;;;;;9.98;4.85;;;;;;;;;;5109308;28;20051;-74
2023/02/11 08:02:09;;;;;;;6.70;4.97;;;;;;;;;;5108527;28;20066;-74
2023/02/11 08:04:39;;;;;;;6.65;5.10;;;;;;;;;;5108448;28;20043;-74
2023/02/11 08:07:10;;;;;;;9.43;5.50;;;;;;;;;;5108540;28;20036;-74
2023/02/11 08:09:42;;;;;;;6.35;5.05;;;;;;;;;;5108123;28;20040;-74
2023/02/11 08:12:13;;;;;;;10.07;5.85;;;;;;;;;;5108109;28;20051;-74
2023/02/11 08:14:43;;;;;;;8.93;5.32;;;;;;;;;;5089962;28;20059;-74
2023/02/11 08:17:14;;;;;;;14.25;6.07;;;;;;;;;;5107146;28;20506;-74
2023/02/11 08:19:44;;;;;;;8.30;5.35;;;;;;;;;;5108057;28;20039;-74
2023/02/11 08:22:14;;;;;;;13.73;5.70;;;;;;;;;;5108685;28;20043;-74
2023/02/11 08:24:44;;;;;;;7.60;5.47;;;;;;;;;;5108396;28;20521;-74
2023/02/11 08:27:24;;;;;;;;;;;;;;;;;;;;;
2023/02/11 08:29:58;;;;;;;7.82;5.03;;;;;;;;;;5106818;28;20063;-74
2023/02/11 08:32:30;;;;;;;9.20;5.28;;;;;;;;;;5108460;28;20039;-74
2023/02/11 08:35:01;;;;;;;10.77;5.65;;;;;;;;;;5107901;28;20051;-74
2023/02/11 08:37:30;;;;;;;8.60;5.60;;;;;;;;;;5107670;28;20052;-75
2023/02/11 08:40:04;;;;;;;10.48;5.35;;;;;;;;;;5107876;28;20051;-74
2023/02/11 08:42:35;;;;;;;7.00;5.30;;;;;;;;;;5107634;28;20055;-75
2023/02/11 08:45:05;;;;;;;7.55;5.50;;;;;;;;;;5108065;28;20040;-74
2023/02/11 08:47:37;;;;;;;9.50;5.68;;;;;;;;;;5107624;28;20060;-74
2023/02/11 08:50:07;;;;;;;9.02;5.78;;;;;;;;;;5108024;28;20043;-74
2023/02/11 08:55:28;;;;;;;10.13;5.55;;;;;;;;;;5098256;28;20066;-74
2023/02/11 08:58:07;;;;;;;9.20;5.72;;;;;;;;;;5108323;28;20047;-74
2023/02/11 09:00:38;;;;;;;9.48;4.97;;;;;;;;;;5107053;28;20043;-74
2023/02/11 09:03:08;;;;;;;9.43;4.63;;;;;;;;;;5107091;28;20051;-77
2023/02/11 09:05:57;;;;;;;5.90;4.35;;;;;;;;;;5107177;28;20375;-74
2023/02/11 09:08:27;;;;;;;9.15;5.75;;;;;;;;;;5107503;28;20043;-74
2023/02/11 09:10:57;;;;;;;7.80;5.40;;;;;;;;;;5107582;28;20042;-74
2023/02/11 09:13:31;;;;;;;7.97;5.05;;;;;;;;;;5107487;28;20070;-75
2023/02/11 09:16:04;;;;;;;8.35;5.00;;;;;;;;;;5107111;28;20043;-75
2023/02/11 09:18:43;;;;;;;8.95;5.97;;;;;;;;;;5107411;28;20174;-75
2023/02/11 09:21:23;;;;;;;11.15;5.75;;;;;;;;;;5107564;28;20054;-76
2023/02/11 09:23:54;;;;;;;5.82;4.65;;;;;;;;;;5072382;28;20071;-76
2023/02/11 09:26:31;;;;;;;8.55;5.40;;;;;;;;;;5107003;28;20043;-76
2023/02/11 09:29:02;;;;;;;6.93;5.45;;;;;;;;;;5109690;28;20040;-76
2023/02/11 09:31:53;;;;;;;11.13;5.35;;;;;;;;;;5108755;28;20054;-74
2023/02/11 09:34:24;;;;;;;8.05;5.75;;;;;;;;;;5107743;28;20040;-76
2023/02/11 09:37:17;;;;;;;9.13;6.28;;;;;;;;;;5078946;28;20048;-79
2023/02/11 09:39:48;;;;;;;10.88;6.03;;;;;;;;;;5089426;28;20051;-75
2023/02/11 09:42:25;;;;;;;10.88;6.75;;;;;;;;;;5107330;28;20121;-76
2023/02/11 09:45:17;;;;;;;17.80;6.30;;;;;;;;;;5107453;28;20043;-76
2023/02/11 09:48:17;;;;;;;12.75;6.82;;;;;;;;;;5107815;28;20071;-74
2023/02/11 09:50:56;;;;;;;13.02;6.60;;;;;;;;;;5089506;28;20062;-75
2023/02/11 09:53:35;;;;;;;8.27;6.50;;;;;;;;;;5107458;28;20043;-76
2023/02/11 09:56:12;;;;;;;18.25;6.10;;;;;;;;;;5104276;28;20047;-76
2023/02/11 09:58:46;;;;;;;15.52;6.43;;;;;;;;;;5108494;28;20055;-75
2023/02/11 10:01:57;;;;;;;11.10;6.75;;;;;;;;;;5108193;28;20521;-77
2023/02/11 10:04:42;;;;;;;26.30;6.93;;;;;;;;;;5091907;28;20059;-76
2023/02/11 10:07:32;;;;;;;14.02;6.40;;;;;;;;;;5106889;28;20063;-76
2023/02/11 10:10:03;;;;;;;17.33;5.97;;;;;;;;;;5107853;28;20047;-76
2023/02/11 10:13:03;;;;;;;13.82;6.60;;;;;;;;;;5108070;28;20063;-76
2023/02/11 10:16:27;;;;;;;15.77;6.50;;;;;;;;;;5111192;28;20047;-76
2023/02/11 10:19:26;;;;;;;16.00;6.18;;;;;;;;;;5086383;28;20056;-77
2023/02/11 10:22:21;;;;;;;13.07;7.03;;;;;;;;;;5111600;28;20043;-77
2023/02/11 10:25:04;;;;;;;27.77;5.88;;;;;;;;;;5111811;28;20406;-75
2023/02/11 10:27:36;;;;;;;11.70;5.10;;;;;;;;;;5110710;28;20043;-75
2023/02/11 10:30:20;;;;;;;13.32;4.40;;;;;;;;;;5110621;28;20048;-76
2023/02/11 10:32:58;;;;;;;16.38;4.25;;;;;;;;;;5093119;28;20055;-76
2023/02/11 10:35:29;;;;;;;6.70;3.60;;;;;;;;;;5111357;28;20043;-76
2023/02/11 10:38:00;;;;;;;6.20;3.80;;;;;;;;;;5096173;28;20047;-76
2023/02/11 10:40:48;;;;;;;;;;;;;;;;;;5089194;28;20055;-76
2023/02/11 10:43:25;;;;;;;7.75;3.38;;;;;;;;;;5090457;28;19924;-76
2023/02/11 10:45:57;;;;;;;11.27;3.25;;;;;;;;;;5091199;28;20059;-75
2023/02/11 10:48:53;;;;;;;10.93;3.42;;;;;;;;;;5091142;28;20047;-76
2023/02/11 10:51:32;;;;;;;7.85;3.10;;;;;;;;;;5090344;28;20490;-76
2023/02/11 10:54:12;;;;;;;9.77;3.25;;;;;;;;;;5090082;28;20048;-87
2023/02/11 10:56:57;;;;;;;11.65;2.97;;;;;;;;;;5090187;28;20052;-84
2023/02/11 10:59:31;;;;;;;6.63;3.20;;;;;;;;;;5072377;28;20040;-83
2023/02/11 11:02:21;;;;;;;13.32;3.78;;;;;;;;;;5071798;28;20064;-83
2023/02/11 11:04:58;;;;;;;7.55;3.35;;;;;;;;;;5090702;28;20051;-77
2023/02/11 11:07:32;;;;;;;9.85;3.25;;;;;;;;;;5072360;28;20051;-79
2023/02/11 11:10:24;;;;;;;6.45;3.10;;;;;;;;;;5090616;28;20055;-77
2023/02/11 11:12:54;;;;;;;8.30;3.08;;;;;;;;;;5073814;28;20501;-77
2023/02/11 11:15:34;;;;;;;5.97;2.92;;;;;;;;;;5090384;28;20483;-78
2023/02/11 11:18:17;;;;;;;9.38;3.50;;;;;;;;;;5089703;28;20514;-77
2023/02/11 11:20:59;;;;;;;6.97;3.08;;;;;;;;;;5072334;28;20055;-78
2023/02/11 11:23:30;;;;;;;10.25;2.92;;;;;;;;;;5069443;28;20060;-77
2023/02/11 11:26:13;;;;;;;8.88;2.72;;;;;;;;;;5072226;28;20075;-77
2023/02/11 11:29:07;;;;;;;8.18;3.20;;;;;;;;;;5090099;28;20399;-76
2023/02/11 11:31:49;;;;;;;9.45;3.20;;;;;;;;;;5089620;28;20044;-78
2023/02/11 11:34:31;;;;;;;6.32;2.67;;;;;;;;;;5089550;28;20056;-78
2023/02/11 11:37:13;;;;;;;18.17;15.38;;;;;;;;;;5089995;28;20055;-78
2023/02/11 11:39:58;;;;;;;9.77;3.28;;;;;;;;;;5088760;28;20044;-75
2023/02/11 11:42:37;;;;;;;4.53;3.13;;;;;;;;;;5072301;28;20059;-76
2023/02/11 11:45:27;;;;;;;5.25;2.95;;;;;;;;;;5087755;28;20545;-76
2023/02/11 11:48:21;;;;;;;6.00;3.00;;;;;;;;;;5088572;28;20048;-77
2023/02/11 11:51:01;;;;;;;9.82;3.22;;;;;;;;;;5088497;28;20059;-78
2023/02/11 11:54:02;;;;;;;8.52;3.35;;;;;;;;;;5088265;28;20052;-80
2023/02/11 11:56:38;;;;;;;8.35;2.85;;;;;;;;;;5088016;28;20059;-78
2023/02/11 11:59:15;;;;;;;14.93;3.10;;;;;;;;;;5070885;28;20055;-79
2023/02/11 12:01:51;;;;;;;6.07;2.78;;;;;;;;;;5088137;28;20055;-77
2023/02/11 12:05:01;;;;;;;4.03;2.83;;;;;;;;;;5088217;28;20052;-78
2023/02/11 12:07:55;;;;;;;9.35;2.90;;;;;;;;;;5088345;28;20053;-77
2023/02/11 12:10:38;;;;;;;6.68;3.00;;;;;;;;;;5088391;28;20051;-77
2023/02/11 12:13:16;;;;;;;9.40;3.80;;;;;;;;;;5087809;28;20036;-78
2023/02/11 12:16:21;;;;;;;8.98;2.58;;;;;;;;;;5087814;28;20407;-76
2023/02/11 12:19:29;;;;;;;6.53;2.40;;;;;;;;;;5085771;28;20056;-77
2023/02/11 12:22:51;;;;;;;6.63;2.50;;;;;;;;;;5088505;28;20768;-77
2023/02/11 12:25:25;;;;;;;;;;;;;;;;;;5087977;28;20057;-77
2023/02/11 12:28:08;;;;;;;11.13;2.60;;;;;;;;;;5069587;28;19923;-77
2023/02/11 12:30:51;;;;;;;5.40;2.33;;;;;;;;;;5088294;28;20063;-77
2023/02/11 12:33:35;;;;;;;5.78;2.45;;;;;;;;;;5087927;28;20044;-78
2023/02/11 12:36:30;;;;;;;5.50;2.13;;;;;;;;;;5087196;28;20529;-79
2023/02/11 12:39:12;;;;;;;8.15;2.67;;;;;;;;;;5087777;28;20051;-78
2023/02/11 12:44:49;;;;;;;3.65;2.28;;;;;;;;;;5088301;28;20051;-78
2023/02/11 12:47:32;;;;;;;7.43;2.38;;;;;;;;;;5087954;28;20059;-78
2023/02/11 12:50:07;;;;;;;5.07;2.30;;;;;;;;;;5087894;28;20054;-78
2023/02/11 12:53:01;;;;;;;7.03;1.92;;;;;;;;;;5087123;28;20048;-78
2023/02/11 12:55:55;;;;;;;4.45;2.10;;;;;;;;;;5087720;28;20044;-78
2023/02/11 12:58:36;;;;;;;4.55;1.83;;;;;;;;;;5087293;28;20059;-78
2023/02/11 13:01:19;;;;;;;3.45;1.92;;;;;;;;;;5068490;28;20052;-78
2023/02/11 13:04:15;;;;;;;4.75;1.73;;;;;;;;;;5087360;28;20729;-79
2023/02/11 13:07:01;;;;;;;;;;;;;;;;;;;;;
2023/02/11 13:10:11;;;;;;;;;;;;;;;;;;;;;
2023/02/11 13:15:36;;;;;;;2.75;1.63;;;;;;;;;;5087097;28;20067;-77
2023/02/11 13:18:43;;;;;;;2.72;2.00;;;;;;;;;;5068404;28;20048;-77
2023/02/11 13:21:50;;;;;;;3.92;2.05;;;;;;;;;;5071916;28;20060;-76
2023/02/11 13:24:45;;;;;;;2.88;1.85;;;;;;;;;;5069968;28;20060;-78
2023/02/11 13:27:39;;;;;;;8.48;2.40;;;;;;;;;;5086656;28;20052;-77
2023/02/11 13:30:35;;;;;;;3.28;2.05;;;;;;;;;;5087201;28;20046;-78
2023/02/11 13:33:34;;;;;;;7.00;2.05;;;;;;;;;;5087125;28;20051;-75
2023/02/11 13:36:04;;;;;;;4.22;2.30;;;;;;;;;;5078899;28;20522;-74
2023/02/11 13:38:50;;;;;;;4.53;2.47;;;;;;;;;;5087468;28;20040;-75
2023/02/11 13:41:33;;;;;;;5.55;2.63;;;;;;;;;;5086945;28;20051;-81
2023/02/11 13:44:09;;;;;;;4.10;2.58;;;;;;;;;;5086768;28;20055;-78
2023/02/11 13:47:04;;;;;;;6.00;2.60;;;;;;;;;;5086963;28;20056;-79
2023/02/11 13:49:41;;;;;;;3.50;2.22;;;;;;;;;;5090789;28;20040;-75
2023/02/11 13:52:32;;;;;;;4.68;2.53;;;;;;;;;;5090684;28;20055;-77
2023/02/11 13:55:23;;;;;;;7.45;2.50;;;;;;;;;;5090620;28;20051;-78
2023/02/11 13:58:05;;;;;;;4.55;2.45;;;;;;;;;;5090567;28;20126;-77
2023/02/11 14:00:36;;;;;;;4.47;2.42;;;;;;;;;;5091146;28;20403;-78
2023/02/11 14:09:27;;;;;;;8.68;3.05;;;;;;;;;;5089992;28;20067;-78
2023/02/11 14:12:29;;;;;;;5.93;2.58;;;;;;;;;;5090339;28;20075;-78
2023/02/11 14:15:11;;;;;;;2.50;2.22;;;;;;;;;;5073240;28;20687;-78
2023/02/11 14:17:42;;;;;;;6.25;2.60;;;;;;;;;;5090635;28;20411;-78
2023/02/11 14:20:35;;;;;;;5.57;2.35;;;;;;;;;;5090232;28;20060;-80
2023/02/11 14:23:06;;;;;;;7.65;2.50;;;;;;;;;;5071176;28;20074;-81
2023/02/11 14:25:40;;;;;;;3.75;2.40;;;;;;;;;;5089715;28;20055;-78
2023/02/11 14:28:25;;;;;;;5.13;2.60;;;;;;;;;;5089184;28;20040;-74
2023/02/11 14:31:13;;;;;;;5.78;3.20;;;;;;;;;;5090177;28;20067;-75
2023/02/11 14:34:06;;;;;;;3.65;2.60;;;;;;;;;;5090406;28;20051;-75
2023/02/11 14:36:45;;;;;;;3.72;2.60;;;;;;;;;;5090049;28;20048;-76
2023/02/11 14:39:48;;;;;;;10.98;2.40;;;;;;;;;;5090126;28;20411;-76
2023/02/11 14:42:24;;;;;;;4.35;2.50;;;;;;;;;;5089853;28;20040;-77
2023/02/11 14:45:08;;;;;;;3.10;1.88;;;;;;;;;;5089794;28;20048;-78
2023/02/11 14:47:54;;;;;;;2.55;1.80;;;;;;;;;;5090070;28;20431;-78
2023/02/11 14:50:45;;;;;;;3.95;1.88;;;;;;;;;;5090261;28;20056;-76
2023/02/11 14:53:45;;;;;;;3.42;1.67;;;;;;;;;;5088704;28;20063;-76
2023/02/11 14:56:20;;;;;;;4.63;1.70;;;;;;;;;;5089135;28;20048;-78
2023/02/11 14:58:52;;;;;;;4.07;1.70;;;;;;;;;;5087595;28;20052;-80
2023/02/11 15:01:34;;;;;;;3.35;1.63;;;;;;;;;;5089172;28;20059;-77
2023/02/11 15:04:22;;;;;;;4.15;1.42;;;;;;;;;;5069948;28;20056;-77
2023/02/11 15:06:54;;;;;;;2.40;1.40;;;;;;;;;;5088809;28;20052;-80
2023/02/11 15:09:36;;;;;;;4.38;1.77;;;;;;;;;;5088829;28;20051;-76
2023/02/11 15:12:27;;;;;;;6.85;1.65;;;;;;;;;;5070953;28;20052;-78
2023/02/11 15:15:15;;;;;;;3.63;1.70;;;;;;;;;;5089922;28;20051;-78
2023/02/11 15:18:04;;;;;;;3.15;1.80;;;;;;;;;;5045122;28;20060;-78
2023/02/11 15:20:35;;;;;;;3.88;1.80;;;;;;;;;;5089432;28;20056;-76
2023/02/11 15:23:16;;;;;;;;;;;;;;;;;;5089614;28;20043;-76
2023/02/11 15:25:54;;;;;;;5.75;1.67;;;;;;;;;;5090218;28;20433;-76
2023/02/11 15:28:28;;;;;;;4.45;2.10;;;;;;;;;;5089531;28;20051;-74
2023/02/11 15:31:15;;;;;;;3.00;1.80;;;;;;;;;;5087917;28;20052;-75
2023/02/11 15:33:47;;;;;;;3.42;1.73;;;;;;;;;;5088500;28;20040;-76
2023/02/11 15:36:22;;;;;;;5.88;2.03;;;;;;;;;;5071379;28;20495;-75
2023/02/11 15:39:10;;;;;;;;;;;;;;;;;;5089804;28;20065;-74
2023/02/11 15:42:10;;;;;;;6.35;2.10;;;;;;;;;;5089294;28;20318;-76
2023/02/11 15:45:10;;;;;;;5.65;1.90;;;;;;;;;;5081746;28;20422;-76
2023/02/11 15:48:06;;;;;;;3.80;1.90;;;;;;;;;;5108712;28;20710;-77
2023/02/11 15:50:39;;;;;;;3.78;1.98;;;;;;;;;;5109133;28;20383;-76
2023/02/11 15:53:23;;;;;;;5.88;2.17;;;;;;;;;;5093042;28;20055;-77
2023/02/11 15:56:09;;;;;;;6.07;2.15;;;;;;;;;;5110760;28;20044;-75
2023/02/11 15:58:53;;;;;;;;;;;;;;;;;;;;;
2023/02/11 16:01:38;;;;;;;5.78;2.33;;;;;;;;;;5108172;28;20509;-77
2023/02/11 16:04:20;;;;;;;8.65;1.75;;;;;;;;;;5108463;28;20056;-79
2023/02/11 16:06:52;;;;;;;1.85;1.23;;;;;;;;;;5108958;28;20050;-77
2023/02/11 16:09:31;;;;;;;4.72;1.45;;;;;;;;;;5090773;28;20061;-76
2023/02/11 16:12:23;;;;;;;4.57;1.63;;;;;;;;;;5108166;28;20541;-76
2023/02/11 16:14:58;;;;;;;11.60;1.48;;;;;;;;;;5090984;28;20062;-76
2023/02/11 16:17:29;;;;;;;3.80;1.52;;;;;;;;;;5108687;28;20040;-79
2023/02/11 16:20:01;;;;;;;3.38;1.63;;;;;;;;;;5108612;28;20048;-76